createdAt,value
2022-10-14T00:00:06.144Z,11.80
2022-10-14T00:02:32.888Z,14.30
2022-10-14T00:04:59.439Z,11.70
2022-10-14T00:07:26.053Z,11.80
2022-10-14T00:09:55.829Z,14.10
2022-10-14T00:12:22.393Z,11.70
2022-10-14T00:14:48.950Z,13.20
2022-10-14T00:17:15.536Z,11.70
2022-10-14T00:19:42.108Z,13.20
2022-10-14T00:22:08.736Z,14.20
2022-10-14T00:24:35.359Z,12.20
2022-10-14T00:27:02.007Z,14.20
2022-10-14T00:29:28.580Z,13.00
2022-10-14T00:31:55.159Z,11.70
2022-10-14T00:34:21.748Z,12.70
2022-10-14T00:36:48.350Z,12.80
2022-10-14T00:39:15.068Z,13.40
2022-10-14T00:41:41.622Z,11.70
2022-10-14T00:44:28.222Z,13.80
2022-10-14T00:46:55.005Z,11.70
2022-10-14T00:49:23.434Z,11.70
2022-10-14T00:51:55.421Z,11.70
2022-10-14T00:54:24.132Z,11.70
2022-10-14T00:56:51.334Z,12.40
2022-10-14T00:59:18.121Z,11.70
2022-10-14T01:01:45.142Z,11.70
2022-10-14T01:04:11.704Z,13.40
2022-10-14T01:06:56.602Z,12.70
2022-10-14T01:09:28.560Z,11.80
2022-10-14T01:12:16.159Z,12.10
2022-10-14T01:14:47.682Z,12.70
2022-10-14T01:17:18.698Z,12.00
2022-10-14T01:19:59.030Z,11.90
2022-10-14T01:22:32.305Z,11.90
2022-10-14T01:25:14.361Z,11.90
2022-10-14T01:27:59.655Z,11.90
2022-10-14T01:30:29.667Z,11.90
2022-10-14T01:33:14.323Z,12.00
2022-10-14T01:35:59.255Z,11.90
2022-10-14T01:38:34.518Z,11.90
2022-10-14T01:41:07.433Z,11.80
2022-10-14T01:43:34.839Z,11.70
2022-10-14T01:46:03.501Z,12.40
2022-10-14T01:48:32.722Z,13.00
2022-10-14T01:51:00.519Z,11.70
2022-10-14T01:53:30.495Z,11.90
2022-10-14T01:55:57.487Z,13.10
2022-10-14T01:58:26.272Z,13.40
2022-10-14T02:00:53.153Z,13.00
2022-10-14T02:03:19.800Z,13.00
2022-10-14T02:06:06.774Z,12.10
2022-10-14T02:08:42.729Z,11.80
2022-10-14T02:11:15.489Z,11.70
2022-10-14T02:13:49.059Z,11.70
2022-10-14T02:16:24.840Z,13.00
2022-10-14T02:18:56.489Z,11.70
2022-10-14T02:21:26.707Z,11.70
2022-10-14T02:23:59.013Z,11.70
2022-10-14T02:26:26.542Z,13.00
2022-10-14T02:28:53.743Z,11.60
2022-10-14T02:31:20.939Z,12.60
2022-10-14T02:33:50.201Z,12.80
2022-10-14T02:36:17.886Z,12.30
2022-10-14T02:38:45.831Z,12.40
2022-10-14T02:41:14.766Z,13.70
2022-10-14T02:43:41.448Z,11.60
2022-10-14T02:46:08.097Z,12.60
2022-10-14T02:48:34.819Z,11.60
2022-10-14T02:51:01.497Z,13.00
2022-10-14T02:53:28.134Z,11.70
2022-10-14T02:55:54.772Z,13.80
2022-10-14T02:58:21.448Z,13.10
2022-10-14T03:00:51.207Z,11.80
2022-10-14T03:03:17.914Z,11.80
2022-10-14T03:05:44.614Z,12.40
2022-10-14T03:08:11.268Z,12.40
2022-10-14T03:10:37.951Z,13.60
2022-10-14T03:13:04.642Z,11.80
2022-10-14T03:15:31.345Z,11.90
2022-10-14T03:17:58.037Z,13.20
2022-10-14T03:20:24.704Z,11.70
2022-10-14T03:22:52.091Z,11.90
2022-10-14T03:25:19.239Z,12.60
2022-10-14T03:27:45.869Z,11.80
2022-10-14T03:30:12.558Z,11.80
2022-10-14T03:32:39.208Z,11.80
2022-10-14T03:35:06.047Z,12.50
2022-10-14T03:37:32.661Z,11.70
2022-10-14T03:39:59.275Z,13.10
2022-10-14T03:42:25.918Z,12.00
2022-10-14T03:44:52.535Z,12.60
2022-10-14T03:47:19.158Z,12.50
2022-10-14T03:49:45.828Z,11.80
2022-10-14T03:52:12.546Z,11.80
2022-10-14T03:54:39.361Z,11.60
2022-10-14T03:57:06.136Z,13.60
2022-10-14T03:59:32.768Z,13.10
2022-10-14T04:01:59.602Z,12.30
2022-10-14T04:04:26.345Z,14.40
2022-10-14T04:06:53.045Z,11.70
2022-10-14T04:09:19.716Z,12.20
2022-10-14T04:11:46.359Z,13.30
2022-10-14T04:14:12.969Z,12.80
2022-10-14T04:16:39.617Z,12.20
2022-10-14T04:19:06.356Z,12.00
2022-10-14T04:21:33.067Z,11.80
2022-10-14T04:24:00.571Z,12.60
2022-10-14T04:26:29.468Z,11.80
2022-10-14T04:28:56.164Z,12.20
2022-10-14T04:31:22.927Z,12.40
2022-10-14T04:33:50.003Z,11.80
2022-10-14T04:36:16.659Z,11.90
2022-10-14T04:38:43.486Z,11.70
2022-10-14T04:41:10.228Z,12.90
2022-10-14T04:43:36.909Z,11.70
2022-10-14T04:46:03.567Z,11.70
2022-10-14T04:48:30.222Z,11.70
2022-10-14T04:50:56.846Z,11.80
2022-10-14T04:53:23.463Z,11.80
2022-10-14T04:55:51.700Z,14.10
2022-10-14T04:58:18.454Z,11.80
2022-10-14T05:00:45.114Z,12.20
2022-10-14T05:03:11.936Z,11.80
2022-10-14T05:05:38.610Z,11.80
2022-10-14T05:08:05.702Z,11.80
2022-10-14T05:10:32.821Z,11.80
2022-10-14T05:12:59.521Z,11.80
2022-10-14T05:15:26.264Z,11.80
2022-10-14T05:17:52.978Z,11.80
2022-10-14T05:20:20.302Z,11.80
2022-10-14T05:22:47.163Z,14.00
2022-10-14T05:25:13.868Z,11.80
2022-10-14T05:27:40.530Z,11.80
2022-10-14T05:30:07.495Z,11.80
2022-10-14T05:32:34.266Z,11.80
2022-10-14T05:35:01.034Z,12.80
2022-10-14T05:37:27.818Z,11.80
2022-10-14T05:39:55.275Z,13.10
2022-10-14T05:42:22.301Z,11.90
2022-10-14T05:44:49.192Z,11.90
2022-10-14T05:47:15.908Z,13.60
2022-10-14T05:49:42.856Z,11.80
2022-10-14T05:52:09.533Z,11.90
2022-10-14T05:54:36.233Z,11.90
2022-10-14T05:57:02.971Z,11.90
2022-10-14T05:59:30.031Z,11.90
2022-10-14T06:01:57.411Z,11.90
2022-10-14T06:04:24.164Z,11.90
2022-10-14T06:06:50.856Z,11.90
2022-10-14T06:09:17.953Z,11.90
2022-10-14T06:11:44.848Z,11.90
2022-10-14T06:14:11.524Z,13.40
2022-10-14T06:16:38.354Z,14.10
2022-10-14T06:19:05.134Z,12.00
2022-10-14T06:21:31.810Z,12.10
2022-10-14T06:23:58.553Z,12.60
2022-10-14T06:26:25.255Z,12.40
2022-10-14T06:28:52.013Z,12.50
2022-10-14T06:31:18.765Z,14.10
2022-10-14T06:33:45.430Z,12.80
2022-10-14T06:36:12.259Z,13.00
2022-10-14T06:38:40.807Z,12.30
2022-10-14T06:41:07.585Z,12.30
2022-10-14T06:43:35.417Z,12.50
2022-10-14T06:46:04.336Z,12.40
2022-10-14T06:48:31.439Z,14.80
2022-10-14T06:50:59.151Z,14.70
2022-10-14T06:53:26.127Z,13.80
2022-10-14T06:55:59.797Z,12.40
2022-10-14T06:58:26.607Z,12.40
2022-10-14T07:00:53.629Z,13.40
2022-10-14T07:03:20.740Z,12.50
2022-10-14T07:05:47.562Z,13.00
2022-10-14T07:08:15.537Z,12.50
2022-10-14T07:10:42.846Z,14.40
2022-10-14T07:13:09.466Z,12.60
2022-10-14T07:15:37.429Z,12.70
2022-10-14T07:18:04.763Z,13.10
2022-10-14T07:20:31.506Z,12.80
2022-10-14T07:22:58.347Z,12.90
2022-10-14T07:25:25.215Z,13.00
2022-10-14T07:27:55.004Z,13.10
2022-10-14T07:30:21.660Z,13.10
2022-10-14T07:32:48.332Z,14.30
2022-10-14T07:35:15.231Z,13.10
2022-10-14T07:37:42.007Z,13.20
2022-10-14T07:40:09.943Z,14.50
2022-10-14T07:42:36.922Z,13.30
2022-10-14T07:45:04.611Z,13.30
2022-10-14T07:47:32.887Z,13.20
2022-10-14T07:50:03.183Z,15.60
2022-10-14T07:52:30.091Z,13.50
2022-10-14T07:54:56.763Z,13.60
2022-10-14T07:57:24.013Z,15.10
2022-10-14T07:59:52.682Z,14.70
2022-10-14T08:02:19.571Z,13.70
2022-10-14T08:04:46.880Z,13.70
2022-10-14T08:07:16.476Z,14.90
2022-10-14T08:09:43.130Z,14.90
2022-10-14T08:12:09.826Z,13.80
2022-10-14T08:14:36.547Z,13.90
2022-10-14T08:17:03.206Z,13.90
2022-10-14T08:19:29.967Z,13.90
2022-10-14T08:21:56.647Z,15.20
2022-10-14T08:24:23.381Z,16.10
2022-10-14T08:26:53.873Z,14.00
2022-10-14T08:29:22.576Z,14.00
2022-10-14T08:31:49.600Z,14.80
2022-10-14T08:34:16.273Z,14.10
2022-10-14T08:36:42.990Z,14.30
2022-10-14T08:41:52.306Z,14.90
2022-10-14T08:44:23.113Z,14.10
2022-10-14T08:46:55.657Z,14.10
2022-10-14T08:49:25.829Z,14.10
2022-10-14T08:51:58.025Z,14.10
2022-10-14T08:54:44.963Z,14.10
2022-10-14T08:57:21.940Z,14.50
2022-10-14T08:59:48.785Z,14.20
2022-10-14T09:02:30.947Z,14.30
2022-10-14T09:04:58.898Z,14.40
2022-10-14T09:07:25.575Z,16.00
2022-10-14T09:09:55.350Z,16.00
2022-10-14T09:12:25.661Z,16.80
2022-10-14T09:14:59.786Z,14.80
2022-10-14T09:17:33.962Z,15.50
2022-10-14T09:20:13.397Z,14.90
2022-10-14T09:22:40.089Z,14.90
2022-10-14T09:25:12.305Z,15.60
2022-10-14T09:27:39.052Z,15.10
2022-10-14T09:30:10.342Z,17.30
2022-10-14T09:32:49.152Z,15.30
2022-10-14T09:35:26.576Z,15.30
2022-10-14T09:37:53.423Z,15.50
2022-10-14T09:40:30.964Z,15.60
2022-10-14T09:43:09.797Z,15.70
2022-10-14T09:45:56.784Z,15.80
2022-10-14T09:48:23.430Z,16.00
2022-10-14T09:50:51.945Z,16.10
2022-10-14T09:53:27.699Z,16.10
2022-10-14T09:55:55.341Z,16.10
2022-10-14T09:58:27.344Z,16.10
2022-10-14T10:00:56.905Z,16.10
2022-10-14T10:03:24.758Z,16.00
2022-10-14T10:05:59.664Z,15.90
2022-10-14T10:08:26.719Z,15.90
2022-10-14T10:11:05.426Z,15.90
2022-10-14T10:13:47.130Z,15.90
2022-10-14T10:16:34.773Z,16.00
2022-10-14T10:19:20.033Z,16.00
2022-10-14T10:21:47.666Z,16.10
2022-10-14T10:24:20.433Z,16.10
2022-10-14T10:26:47.567Z,16.00
2022-10-14T10:29:24.981Z,15.90
2022-10-14T10:32:06.933Z,15.80
2022-10-14T10:34:48.111Z,15.70
2022-10-14T10:37:17.669Z,15.60
2022-10-14T10:39:55.417Z,15.50
2022-10-14T10:42:39.739Z,15.50
2022-10-14T10:45:25.388Z,15.40
2022-10-14T10:47:52.051Z,15.40
2022-10-14T10:50:24.347Z,17.60
2022-10-14T10:53:09.668Z,17.60
2022-10-14T10:58:21.689Z,15.30
2022-10-14T11:00:52.683Z,15.30
2022-10-14T11:03:34.752Z,15.40
2022-10-14T11:06:07.175Z,15.40
2022-10-14T11:08:58.415Z,15.40
2022-10-14T11:11:45.761Z,15.50
2022-10-14T11:14:19.863Z,15.60
2022-10-14T11:16:51.530Z,17.20
2022-10-14T11:19:35.115Z,15.70
2022-10-14T11:22:04.521Z,15.80
2022-10-14T11:24:43.126Z,15.90
2022-10-14T11:27:24.861Z,15.90
2022-10-14T11:29:51.718Z,15.90
2022-10-14T11:32:28.876Z,17.00
2022-10-14T11:35:07.896Z,15.90
2022-10-14T11:37:58.170Z,16.00
2022-10-14T11:40:28.978Z,16.00
2022-10-14T11:43:01.999Z,16.40
2022-10-14T11:45:42.728Z,16.10
2022-10-14T11:48:27.572Z,16.20
2022-10-14T11:51:05.436Z,16.40
2022-10-14T11:56:29.817Z,16.60
2022-10-14T11:59:01.127Z,16.60
2022-10-14T12:01:34.202Z,16.60
2022-10-14T12:04:06.469Z,16.60
2022-10-14T12:06:56.486Z,18.90
2022-10-14T12:09:26.285Z,16.70
2022-10-14T12:11:56.511Z,16.80
2022-10-14T12:14:28.743Z,16.80
2022-10-14T12:16:55.788Z,17.40
2022-10-14T12:19:27.109Z,16.80
2022-10-14T12:22:02.476Z,16.70
2022-10-14T12:24:32.663Z,16.70
2022-10-14T12:27:01.786Z,16.70
2022-10-14T12:29:31.360Z,18.80
2022-10-14T12:32:03.913Z,16.80
2022-10-14T12:34:35.020Z,16.80
2022-10-14T12:37:27.208Z,16.80
2022-10-14T12:40:03.459Z,16.80
2022-10-14T12:42:30.906Z,18.10
2022-10-14T12:44:58.892Z,17.20
2022-10-14T12:47:35.364Z,16.60
2022-10-14T12:50:03.728Z,16.50
2022-10-14T12:52:32.221Z,16.50
2022-10-14T12:55:02.809Z,16.40
2022-10-14T12:57:30.827Z,16.40
2022-10-14T12:59:59.903Z,16.40
2022-10-14T13:02:44.741Z,16.50
2022-10-14T13:05:24.638Z,16.50
2022-10-14T13:08:09.928Z,16.60
2022-10-14T13:10:45.205Z,16.70
2022-10-14T13:13:32.203Z,16.90
2022-10-14T13:15:59.822Z,16.90
2022-10-14T13:18:34.325Z,18.20
2022-10-14T13:21:01.033Z,17.00
2022-10-14T13:23:30.530Z,16.90
2022-10-14T13:26:29.649Z,16.90
2022-10-14T13:29:06.345Z,16.90
2022-10-14T13:31:36.027Z,16.90
2022-10-14T13:34:22.878Z,16.90
2022-10-14T13:36:55.781Z,16.90
2022-10-14T13:39:22.456Z,16.70
2022-10-14T13:41:49.239Z,17.80
2022-10-14T13:44:17.960Z,16.70
2022-10-14T13:46:45.602Z,18.60
2022-10-14T13:49:24.370Z,18.50
2022-10-14T13:51:52.987Z,17.40
2022-10-14T13:54:21.856Z,16.60
2022-10-14T13:57:28.982Z,16.50
2022-10-14T14:00:11.649Z,16.50
2022-10-14T14:02:33.939Z,16.40
2022-10-14T14:05:01.478Z,16.80
2022-10-14T14:08:07.905Z,17.70
2022-10-14T14:10:20.693Z,16.70
2022-10-14T14:12:47.669Z,16.80
2022-10-14T14:15:27.432Z,16.10
2022-10-14T14:17:54.116Z,16.30
2022-10-14T14:20:25.764Z,16.30
2022-10-14T14:22:52.450Z,16.30
2022-10-14T14:25:33.978Z,16.30
2022-10-14T14:28:02.942Z,16.20
2022-10-14T14:30:31.188Z,16.20
2022-10-14T14:32:59.091Z,17.90
2022-10-14T14:35:25.831Z,17.10
2022-10-14T14:37:56.086Z,16.40
2022-10-14T14:40:24.800Z,16.00
2022-10-14T14:42:53.217Z,15.90
2022-10-14T14:45:22.056Z,15.90
2022-10-14T14:47:50.384Z,15.90
2022-10-14T14:50:35.431Z,15.90
2022-10-14T14:53:13.982Z,15.80
2022-10-14T14:55:43.383Z,15.90
2022-10-14T14:58:22.148Z,15.80
2022-10-14T15:00:50.045Z,15.80
2022-10-14T15:03:16.704Z,15.70
2022-10-14T15:06:09.543Z,16.50
2022-10-14T15:08:37.946Z,15.60
2022-10-14T15:11:04.845Z,15.60
2022-10-14T15:13:52.879Z,15.50
2022-10-14T15:16:36.316Z,16.00
2022-10-14T15:19:21.382Z,15.50
2022-10-14T15:22:07.986Z,15.40
2022-10-14T15:24:34.624Z,17.10
2022-10-14T15:27:22.740Z,16.70
2022-10-14T15:30:09.303Z,15.20
2022-10-14T15:32:35.925Z,15.60
2022-10-14T15:35:02.559Z,16.20
2022-10-14T15:37:29.195Z,15.00
2022-10-14T15:40:03.449Z,16.00
2022-10-14T15:42:30.185Z,16.10
2022-10-14T15:44:56.917Z,14.90
2022-10-14T15:47:24.424Z,14.80
2022-10-14T15:49:51.122Z,16.00
2022-10-14T15:52:19.445Z,16.10
2022-10-14T15:54:48.978Z,15.80
2022-10-14T15:57:16.757Z,15.70
2022-10-14T15:59:43.624Z,15.10
2022-10-14T16:02:23.772Z,15.00
2022-10-14T16:05:18.208Z,14.60
2022-10-14T16:07:38.453Z,14.50
2022-10-14T16:10:05.866Z,14.50
2022-10-14T16:12:32.545Z,14.50
2022-10-14T16:14:59.216Z,16.40
2022-10-14T16:17:25.903Z,16.50
2022-10-14T16:19:52.533Z,14.50
2022-10-14T16:22:19.220Z,15.60
2022-10-14T16:24:46.304Z,15.00
2022-10-14T16:27:12.923Z,14.50
2022-10-14T16:29:39.520Z,14.50
2022-10-14T16:32:06.179Z,14.60
2022-10-14T16:34:32.835Z,14.40
2022-10-14T16:36:59.466Z,15.20
2022-10-14T16:39:26.138Z,15.20
2022-10-14T16:41:52.757Z,15.40
2022-10-14T16:44:25.500Z,15.50
2022-10-14T16:47:11.315Z,15.60
2022-10-14T16:49:38.807Z,14.70
2022-10-14T16:52:05.744Z,14.30
2022-10-14T16:54:32.452Z,16.80
2022-10-14T16:56:59.381Z,14.20
2022-10-14T16:59:26.028Z,14.10
2022-10-14T17:01:52.881Z,14.10
2022-10-14T17:04:19.700Z,14.10
2022-10-14T17:06:47.039Z,16.20
2022-10-14T17:09:14.493Z,14.10
2022-10-14T17:11:42.367Z,14.60
2022-10-14T17:14:09.683Z,16.20
2022-10-14T17:16:36.425Z,14.00
2022-10-14T17:19:03.072Z,15.70
2022-10-14T17:21:29.830Z,15.80
2022-10-14T17:24:03.318Z,14.00
2022-10-14T17:26:31.148Z,14.00
2022-10-14T17:28:57.903Z,16.40
2022-10-14T17:31:25.409Z,14.80
2022-10-14T17:33:52.164Z,15.20
2022-10-14T17:36:23.242Z,14.00
2022-10-14T17:38:55.136Z,14.00
2022-10-14T17:41:22.723Z,13.90
2022-10-14T17:43:50.206Z,16.50
2022-10-14T17:46:19.167Z,14.90
2022-10-14T17:48:48.634Z,14.90
2022-10-14T17:51:15.263Z,14.80
2022-10-14T17:53:41.907Z,14.00
2022-10-14T17:56:09.866Z,13.90
2022-10-14T17:58:36.844Z,13.90
2022-10-14T18:01:07.505Z,13.90
2022-10-14T18:03:34.926Z,13.90
2022-10-14T18:06:10.280Z,13.90
2022-10-14T18:08:36.996Z,13.90
2022-10-14T18:11:08.535Z,13.90
2022-10-14T18:13:37.831Z,13.90
2022-10-14T18:16:09.139Z,16.10
2022-10-14T18:18:36.189Z,12.80
2022-10-14T18:21:02.973Z,14.60
2022-10-14T18:23:30.891Z,15.60
2022-10-14T18:26:13.385Z,14.50
2022-10-14T18:28:41.945Z,13.80
2022-10-14T18:31:09.977Z,13.80
2022-10-14T18:33:37.292Z,13.90
2022-10-14T18:36:04.959Z,13.80
2022-10-14T18:38:32.087Z,13.80
2022-10-14T18:41:05.799Z,16.00
2022-10-14T18:43:32.722Z,13.80
2022-10-14T18:46:22.689Z,13.80
2022-10-14T18:48:50.533Z,13.70
2022-10-14T18:51:18.653Z,15.20
2022-10-14T18:53:46.340Z,13.80
2022-10-14T18:56:17.003Z,13.70
2022-10-14T18:58:44.293Z,13.60
2022-10-14T19:01:11.743Z,15.40
2022-10-14T19:03:40.018Z,13.60
2022-10-14T19:06:10.426Z,15.00
2022-10-14T19:08:37.827Z,13.50
2022-10-14T19:11:05.311Z,13.50
2022-10-14T19:13:32.334Z,13.50
2022-10-14T19:15:59.578Z,14.00
2022-10-14T19:18:26.208Z,13.40
2022-10-14T19:20:56.636Z,13.50
2022-10-14T19:23:23.829Z,14.50
2022-10-14T19:25:50.549Z,13.30
2022-10-14T19:28:18.311Z,14.80
2022-10-14T19:30:45.073Z,15.10
2022-10-14T19:33:11.677Z,13.20
2022-10-14T19:35:38.411Z,14.00
2022-10-14T19:38:05.100Z,14.20
2022-10-14T19:40:31.846Z,13.30
2022-10-14T19:42:58.584Z,13.20
2022-10-14T19:45:25.427Z,15.40
2022-10-14T19:47:52.122Z,13.10
2022-10-14T19:50:18.803Z,13.20
2022-10-14T19:52:45.527Z,13.50
2022-10-14T19:55:12.117Z,13.10
2022-10-14T19:57:38.822Z,15.20
2022-10-14T20:00:05.751Z,13.00
2022-10-14T20:02:32.540Z,13.00
2022-10-14T20:04:59.192Z,15.00
2022-10-14T20:07:26.030Z,11.90
2022-10-14T20:09:52.773Z,14.00
2022-10-14T20:12:19.593Z,13.00
2022-10-14T20:14:46.430Z,12.90
2022-10-14T20:17:13.156Z,12.90
2022-10-14T20:19:39.912Z,12.90
2022-10-14T20:22:06.573Z,12.90
2022-10-14T20:24:33.401Z,12.90
2022-10-14T20:27:00.221Z,14.10
2022-10-14T20:29:26.992Z,12.80
2022-10-14T20:31:54.315Z,13.60
2022-10-14T20:34:20.965Z,12.80
2022-10-14T20:36:47.644Z,12.80
2022-10-14T20:39:14.409Z,12.90
2022-10-14T20:41:41.113Z,13.30
2022-10-14T20:44:07.770Z,14.60
2022-10-14T20:46:34.481Z,12.80
2022-10-14T20:49:01.108Z,14.10
2022-10-14T20:51:27.824Z,12.80
2022-10-14T20:54:00.410Z,12.90
2022-10-14T20:56:31.251Z,14.30
2022-10-14T20:58:58.597Z,12.90
2022-10-14T21:01:26.052Z,12.80
2022-10-14T21:03:53.107Z,12.80
2022-10-14T21:06:21.157Z,12.80
2022-10-14T21:08:49.762Z,12.80
2022-10-14T21:11:17.666Z,13.00
2022-10-14T21:13:45.601Z,15.20
2022-10-14T21:16:16.368Z,12.80
2022-10-14T21:18:47.138Z,12.80
2022-10-14T21:21:16.622Z,12.80
2022-10-14T21:23:44.131Z,13.50
2022-10-14T21:26:10.862Z,12.80
2022-10-14T21:28:37.538Z,13.70
2022-10-14T21:31:04.992Z,14.00
2022-10-14T21:33:31.759Z,13.40
2022-10-14T21:36:02.043Z,12.80
2022-10-14T21:38:29.595Z,12.80
2022-10-14T21:41:03.117Z,12.80
2022-10-14T21:43:30.453Z,12.80
2022-10-14T21:46:01.078Z,12.80
2022-10-14T21:48:27.765Z,12.90
2022-10-14T21:51:08.002Z,14.20
2022-10-14T21:53:35.022Z,12.90
2022-10-14T21:56:02.103Z,12.90
2022-10-14T21:58:29.124Z,12.90
2022-10-14T22:01:03.061Z,12.90
2022-10-14T22:03:30.160Z,12.80
2022-10-14T22:05:57.738Z,12.90
2022-10-14T22:08:24.564Z,15.40
2022-10-14T22:10:51.278Z,13.00
2022-10-14T22:13:17.900Z,12.90
2022-10-14T22:15:44.589Z,12.90
2022-10-14T22:18:11.304Z,15.70
2022-10-14T22:20:37.968Z,13.70
2022-10-14T22:23:04.671Z,12.90
2022-10-14T22:25:32.701Z,13.00
2022-10-14T22:27:59.488Z,13.00
2022-10-14T22:30:26.386Z,13.00
2022-10-14T22:32:53.111Z,13.00
2022-10-14T22:35:20.874Z,13.00
2022-10-14T22:37:47.583Z,13.00
2022-10-14T22:40:14.569Z,13.00
2022-10-14T22:42:42.342Z,13.00
2022-10-14T22:45:09.579Z,13.00
2022-10-14T22:47:36.269Z,13.00
2022-10-14T22:50:03.149Z,13.00
2022-10-14T22:52:29.800Z,13.00
2022-10-14T22:54:56.540Z,14.60
2022-10-14T22:57:23.282Z,14.20
2022-10-14T22:59:50.022Z,13.10
2022-10-14T23:02:16.787Z,13.10
2022-10-14T23:04:43.455Z,13.10
2022-10-14T23:07:10.449Z,13.10
2022-10-14T23:09:37.176Z,14.60
2022-10-14T23:12:04.032Z,13.10
2022-10-14T23:14:30.992Z,13.10
2022-10-14T23:16:57.663Z,13.10
2022-10-14T23:19:24.311Z,13.10
2022-10-14T23:21:51.019Z,13.20
2022-10-14T23:24:17.737Z,13.30
2022-10-14T23:26:44.606Z,13.20
2022-10-14T23:29:11.778Z,13.10
2022-10-14T23:31:39.407Z,13.20
2022-10-14T23:34:09.925Z,13.20
2022-10-14T23:36:36.970Z,13.20
2022-10-14T23:39:04.117Z,13.20
2022-10-14T23:41:30.972Z,13.20
2022-10-14T23:43:57.723Z,13.20
2022-10-14T23:46:24.437Z,13.20
2022-10-14T23:49:01.207Z,13.20
2022-10-14T23:51:35.264Z,15.70
2022-10-14T23:54:01.939Z,13.20
2022-10-14T23:56:28.657Z,13.20
2022-10-14T23:58:55.326Z,13.50
